Terminal Aerodrome Forecast
Issued by NWS

Home | Current Version | Previous Version | Text Only | Print | Product List | Glossary On
Versions: 1 2 3 4 5 6 7 8 9 10 11 12 13 14 15 16 17 18 19 20
794
FTUS41 KGYX 131418 AAA
TAFLEB
TAF AMD
KLEB 131418Z 1314/1412 34006KT P6SM -SHSN SCT020 BKN060
     FM131530 32014G22KT P6SM SCT035 BKN060
     FM140000 32010KT P6SM SCT050=

USA.gov is the U.S. government's official web portal to all federal, state and local government web resources and services.